You are here

Stations

Station Name Date Time Temperature Relative Humidity Precipitation Wind Speed Wind Direction Create Custom Report Daily Report Hourly Report
Aberdeen VTcr 2021-18-04 3:00 51.0 85.80 0.00 2.63 NW
Bee Lake 2021-18-04 3:00 50.4 94.10 0.00 0.56 W
Brooksville 2021-18-04 3:00 49.7 92.00 0.00 1.49 NW
Brooksville2 VTso 2021-18-04 3:00 49.5 91.80 0.00
Brown Loam Exp Stn VT 2021-18-04 3:-1
Brown Loam Exp. Stn. 2021-18-04 3:00 46.9 100.00 0.00 0.45 WSW
Clarksdale VTso 2021-18-04 3:00 52.0 83.00 0.00
Cleveland 2021-18-04 3:00 50.8 85.30 0.00 4.43 NNW
Coastal Res & Ext Cnt 2021-18-04 3:00 -148.0 -100.00 0.02 1.69 N
COOP Stoneville 2021-16-04 8:00 55.0 74 0.01
Cooper Farm 2021-18-04 3:00 55.6 84.10 0.00 2.75 NNW
Home Cypress Farm 2021-18-04 3:00 51.8 87.20 0.00 1.74 NNW
Lancaster 2021-18-04 3:00 52.5 77.30 0.00 4.88 NNW
Lyon 2021-18-04 3:00 50.1 88.80 0.00 2.03 NNW
Macon VTcr 2021-18-04 3:00 51.1 91.20 0.00 0.00 W
Mantee VT 2021-18-04 3:00 47.7 97.40 0.00 0.03 WSW
Money 2021-18-04 3:00 50.6 85.70 0.00 2.40 NNW
Mound Bayou 2021-18-04 3:00 51.3 86.10 0.00 2.03 NNE
MSU North Farm Starkv 2021-18-04 3:00 49.0 93.70 0.00 1.04 NW
Natchez 2021-18-04 3:00 53.4 99.90 0.01 1.71 NNE
Olive Branch2 VTso 2021-18-04 3:00 43.8 100.00 0.00
Onward VT 2021-18-04 3:00 51.6 91.70 0.00
Pontotoc AWS COOP 2021-18-04 3:-1
Pontotoc Exp Stn 2021-18-04 3:00 44.4 100.00 0.00 0.55 N
Prairie 2021-18-04 3:00 50.6 99.80 0.00 2.98 NW
Sidon 2021-18-04 3:00 51.7 90.00 0.00 3.74 NNW
Stoneville AWS 2021-18-04 3:00 51.9 87.10 0.00 0.56 NNW
Stoneville F10 2021-18-04 3:00 52.8 0.34 0.00 3.04 NW
Stoneville W 2021-18-04 3:00 53.9 87.00 0.00 3.45 N
Stoneville_F8 2021-18-04 3:00 50.7 92.70 0.00 1.36 NW
Stoneville_SW 2021-18-04 3:00 52.8 90.50 0.00 2.21 NNW
Thighman 2021-18-04 3:00 48.7 97.20 0.00 0.05 N
Tippo VT 2021-18-04 3:00 49.6 90.00 0.00
Tribbett 2021-18-04 3:00 51.2 90.60 0.00 2.72 NNW
Tunica 2021-18-04 3:00 52.6 68.28 0.00 4.39 NNW
Verona 2021-18-04 3:00 46.8 97.10 0.00 1.29 W
Verona VTso 2021-18-04 3:00 45.7 100.00 0.00
Vicksburg 2021-18-04 3:00 49.3 100.00 0.01 2.19 ESE
Back to Top